Aérodrome :
LOGIN :

S'inscrire | Disclaimer

   EN    FR    IT 

 










Légende :    VFR   VFR Marginal   IFR   IFR Intensif   IFR Très Intensif
Visi : 
Plafond : 
>= 8 km
>= 3000ft
5 à 8 km
1000 à 3000 ft
1500m à 5 km
500 à 1000 ft
800 à 1500m
200 à 500 ft
< 800m
< 200 ft
Symboles :   Orages  Brouillard  Fortes neiges  Fortes précipitations  Vent > 20 kt
SIGMETs :   Divers  Orages  Givrage  Turbulence  Onde Orograph.  Cendres Volcan.






- Altitude de l'aérodrome : 464 ft
- Code IATA : EVX


LFOE - Evreux

DERNIER METAR :
  • 280530Z AUTO 21005KT 9999 OVC014 03/03 Q1022 TEMPO BKN005

METARs EXPIRÉS :
  • 280500Z AUTO 20006KT 9999 OVC015 02/02 Q1022
  • 280430Z AUTO 22005KT 9999 OVC015 02/02 Q1022
  • 280400Z AUTO 22006KT 9999 OVC014 02/01 Q1022
  • 280330Z AUTO 24004KT 200V270 9999 OVC015 02/01 Q1022
  • 280300Z AUTO 27006KT 9999 OVC016 01/01 Q1022
  • 280230Z AUTO 24005KT 9999 SCT017 M01/M01 Q1022
  • 280200Z AUTO 24004KT 7000 NSC 01/00 Q1022
  • 280130Z AUTO 25005KT 8000 NSC 01/01 Q1022
  • 280100Z AUTO 27006KT 9000 NSC 01/01 Q1022

TAF AMD TAF LFOE
Valide du 28 à 05h jusqu'au 29 à 03h UTC


280500Z 2805/2903 20005KT 9999 OVC015
TEMPO 2805/2807 BKN008
TEMPO 2807/2810 BKN005
BECMG 2820/2822 BKN008
TEMPO 2900/2903 4000 -RADZ BKN003



MET'MAP, la Météo Aéronautique d'un coup d'oeil ! - Copyright ORBIFLY Décembre 2007 - Disclaimer

ORBIFLY MET'MAP TEAM :

Programmation & Développement : Alexandra Zaïnal
Sur une idée originale de : Baudouin d'Aumeries
Soutien technique & logistique : Manuel Goepfert
Assistance : Marc-Olivier Méhu




SOURCES & CREDITS :

   NOAA